createdAt,value
2022-08-03T00:02:04.337Z,17.09
2022-08-03T00:04:36.379Z,17.07
2022-08-03T00:07:30.114Z,17.07
2022-08-03T00:09:59.639Z,17.07
2022-08-03T00:12:27.956Z,17.07
2022-08-03T00:14:56.111Z,17.07
2022-08-03T00:17:29.651Z,17.07
2022-08-03T00:20:22.460Z,17.08
2022-08-03T00:22:51.652Z,17.08
2022-08-03T00:25:20.068Z,17.08
2022-08-03T00:27:48.351Z,17.07
2022-08-03T00:30:16.966Z,16.98
2022-08-03T00:32:45.918Z,17.05
2022-08-03T00:35:27.433Z,17.05
2022-08-03T00:38:02.447Z,16.96
2022-08-03T00:40:31.852Z,17.07
2022-08-03T00:43:05.604Z,17.08
2022-08-03T00:45:40.509Z,17.09
2022-08-03T00:48:19.771Z,17.08
2022-08-03T00:50:59.209Z,17.08
2022-08-03T00:53:27.984Z,17.07
2022-08-03T00:55:56.542Z,17.00
2022-08-03T00:58:24.815Z,17.07
2022-08-03T01:00:53.166Z,17.09
2022-08-03T01:03:21.608Z,17.10
2022-08-03T01:06:19.475Z,17.10
2022-08-03T01:08:57.019Z,17.12
2022-08-03T01:12:09.254Z,17.12
2022-08-03T01:14:42.385Z,17.13
2022-08-03T01:17:39.357Z,17.14
2022-08-03T01:20:10.710Z,17.14
2022-08-03T01:23:16.480Z,17.15
2022-08-03T01:25:47.375Z,17.14
2022-08-03T01:28:25.265Z,17.13
2022-08-03T01:30:59.175Z,17.11
2022-08-03T01:33:36.243Z,17.10
2022-08-03T01:36:34.111Z,17.00
2022-08-03T01:39:09.507Z,17.07
2022-08-03T01:42:06.401Z,17.05
2022-08-03T01:44:39.092Z,17.02
2022-08-03T01:47:32.998Z,17.01
2022-08-03T01:50:02.505Z,17.01
2022-08-03T01:52:57.175Z,17.01
2022-08-03T01:55:29.763Z,17.01
2022-08-03T01:58:05.656Z,16.99
2022-08-03T02:00:39.985Z,16.98
2022-08-03T02:03:10.761Z,16.98
2022-08-03T02:07:02.059Z,16.99
2022-08-03T02:08:55.590Z,16.98
2022-08-03T02:11:26.651Z,16.98
2022-08-03T02:13:58.555Z,16.92
2022-08-03T02:16:53.114Z,16.89
2022-08-03T02:19:31.348Z,16.99
2022-08-03T02:22:02.485Z,16.98
2022-08-03T02:24:32.074Z,16.99
2022-08-03T02:27:26.727Z,17.00
2022-08-03T02:30:14.495Z,17.01
2022-08-03T02:32:48.123Z,17.01
2022-08-03T02:35:19.497Z,17.02
2022-08-03T02:37:51.990Z,17.04
2022-08-03T02:40:23.120Z,17.06
2022-08-03T02:42:55.827Z,17.09
2022-08-03T02:45:26.624Z,17.10
2022-08-03T02:48:00.307Z,17.11
2022-08-03T02:50:53.810Z,17.12
2022-08-03T02:53:24.054Z,17.13
2022-08-03T02:56:18.418Z,17.14
2022-08-03T02:59:10.886Z,17.16
2022-08-03T03:02:04.731Z,17.15
2022-08-03T03:04:34.114Z,17.18
2022-08-03T03:07:28.774Z,17.19
2022-08-03T03:09:57.895Z,17.19
2022-08-03T03:12:52.894Z,17.20
2022-08-03T03:15:21.839Z,17.23
2022-08-03T03:17:51.981Z,17.25
2022-08-03T03:20:46.104Z,17.26
2022-08-03T03:23:15.455Z,17.27
2022-08-03T03:25:43.910Z,17.27
2022-08-03T03:28:12.437Z,17.29
2022-08-03T03:30:40.830Z,17.31
2022-08-03T03:33:09.117Z,17.34
2022-08-03T03:36:02.629Z,17.36
2022-08-03T03:38:32.173Z,17.40
2022-08-03T03:41:00.826Z,17.40
2022-08-03T03:43:29.687Z,17.43
2022-08-03T03:46:00.897Z,17.45
2022-08-03T03:48:54.556Z,17.48
2022-08-03T03:51:22.935Z,17.49
2022-08-03T03:54:01.088Z,17.48
2022-08-03T03:56:29.797Z,17.49
2022-08-03T03:58:58.028Z,17.49
2022-08-03T04:01:58.787Z,17.49
2022-08-03T04:04:46.037Z,17.50
2022-08-03T04:07:33.090Z,17.51
2022-08-03T04:10:21.682Z,17.53
2022-08-03T04:12:52.334Z,17.47
2022-08-03T04:15:23.301Z,17.57
2022-08-03T04:18:18.113Z,17.59
2022-08-03T04:20:49.042Z,17.64
2022-08-03T04:23:21.406Z,17.60
2022-08-03T04:25:53.563Z,17.72
2022-08-03T04:28:30.593Z,17.78
2022-08-03T04:31:01.544Z,17.84
2022-08-03T04:33:32.612Z,17.88
2022-08-03T04:36:04.521Z,17.95
2022-08-03T04:38:39.115Z,18.00
2022-08-03T04:41:32.398Z,18.06
2022-08-03T04:44:23.506Z,18.10
2022-08-03T04:46:58.957Z,18.16
2022-08-03T04:49:28.365Z,18.21
2022-08-03T04:52:01.696Z,18.26
2022-08-03T04:54:29.850Z,18.31
2022-08-03T04:57:23.645Z,18.35
2022-08-03T05:00:02.714Z,18.42
2022-08-03T05:02:32.395Z,18.39
2022-08-03T05:05:00.790Z,18.53
2022-08-03T05:07:54.573Z,18.59
2022-08-03T05:10:48.729Z,18.68
2022-08-03T05:13:16.966Z,18.78
2022-08-03T05:15:45.168Z,18.91
2022-08-03T05:18:17.848Z,19.02
2022-08-03T05:20:46.119Z,19.16
2022-08-03T05:23:14.614Z,19.30
2022-08-03T05:25:49.789Z,19.39
2022-08-03T05:28:18.535Z,19.48
2022-08-03T05:30:46.722Z,19.58
2022-08-03T05:33:15.295Z,19.66
2022-08-03T05:36:00.631Z,19.72
2022-08-03T05:38:59.593Z,19.78
2022-08-03T05:41:37.317Z,19.84
2022-08-03T05:44:06.080Z,19.89
2022-08-03T05:46:34.329Z,19.92
2022-08-03T05:49:02.642Z,19.93
2022-08-03T05:51:30.977Z,20.00
2022-08-03T05:53:59.188Z,20.11
2022-08-03T05:56:29.568Z,20.17
2022-08-03T05:59:38.239Z,20.19
2022-08-03T06:02:06.935Z,20.18
2022-08-03T06:04:35.107Z,20.20
2022-08-03T06:07:28.512Z,20.25
2022-08-03T06:10:37.580Z,20.30
2022-08-03T06:13:10.476Z,20.36
2022-08-03T06:15:42.819Z,20.40
2022-08-03T06:18:11.216Z,20.33
2022-08-03T06:20:39.456Z,20.39
2022-08-03T06:23:08.183Z,20.39
2022-08-03T06:26:09.519Z,20.34
2022-08-03T06:28:52.953Z,20.45
2022-08-03T06:31:32.902Z,20.47
2022-08-03T06:34:32.838Z,20.50
2022-08-03T06:36:52.963Z,20.51
2022-08-03T06:39:23.586Z,20.58
2022-08-03T06:42:17.933Z,20.65
2022-08-03T06:44:50.021Z,20.72
2022-08-03T06:47:20.337Z,20.80
2022-08-03T06:50:17.048Z,20.91
2022-08-03T06:52:46.729Z,21.01
2022-08-03T06:55:20.813Z,21.10
2022-08-03T06:57:52.864Z,21.16
2022-08-03T07:00:21.428Z,21.23
2022-08-03T07:02:51.798Z,21.32
2022-08-03T07:05:23.276Z,21.39
2022-08-03T07:08:16.482Z,21.43
2022-08-03T07:10:45.789Z,21.66
2022-08-03T07:13:14.008Z,21.76
2022-08-03T07:15:55.328Z,21.91
2022-08-03T07:18:29.118Z,22.06
2022-08-03T07:20:58.931Z,22.19
2022-08-03T07:23:27.241Z,22.27
2022-08-03T07:25:55.540Z,22.31
2022-08-03T07:28:23.804Z,22.36
2022-08-03T07:30:52.118Z,22.45
2022-08-03T07:33:20.305Z,22.50
2022-08-03T07:35:48.650Z,22.54
2022-08-03T07:38:16.918Z,22.67
2022-08-03T07:40:46.466Z,22.75
2022-08-03T07:43:14.868Z,22.76
2022-08-03T07:45:43.057Z,22.72
2022-08-03T07:48:12.572Z,22.75
2022-08-03T07:50:41.046Z,22.68
2022-08-03T07:53:09.246Z,22.81
2022-08-03T07:55:37.473Z,22.90
2022-08-03T07:58:12.611Z,22.95
2022-08-03T08:00:41.121Z,23.01
2022-08-03T08:03:09.348Z,23.03
2022-08-03T08:05:37.901Z,23.12
2022-08-03T08:08:06.108Z,23.13
2022-08-03T08:10:35.278Z,23.29
2022-08-03T08:13:05.047Z,23.29
2022-08-03T08:15:33.283Z,23.45
2022-08-03T08:18:02.590Z,23.56
2022-08-03T08:20:36.538Z,23.68
2022-08-03T08:23:37.833Z,23.80
2022-08-03T08:25:57.061Z,23.94
2022-08-03T08:28:32.599Z,24.05
2022-08-03T08:31:02.575Z,24.12
2022-08-03T08:34:02.793Z,24.28
2022-08-03T08:36:19.497Z,24.36
2022-08-03T08:38:47.977Z,24.54
2022-08-03T08:41:16.829Z,24.69
2022-08-03T08:43:45.140Z,24.80
2022-08-03T08:46:22.729Z,24.93
2022-08-03T08:48:54.675Z,25.08
2022-08-03T08:51:43.839Z,25.24
2022-08-03T08:54:22.232Z,25.37
2022-08-03T08:56:52.744Z,25.49
2022-08-03T08:59:21.997Z,25.61
2022-08-03T09:01:50.272Z,25.82
2022-08-03T09:04:19.065Z,26.03
2022-08-03T09:07:10.562Z,26.26
2022-08-03T09:10:11.333Z,26.51
2022-08-03T09:12:42.237Z,26.74
2022-08-03T09:15:22.911Z,27.01
2022-08-03T09:17:53.085Z,27.25
2022-08-03T09:20:23.361Z,27.53
2022-08-03T09:22:53.713Z,27.73
2022-08-03T09:25:37.649Z,27.88
2022-08-03T09:28:14.090Z,28.18
2022-08-03T09:31:02.430Z,28.45
2022-08-03T09:33:35.954Z,28.77
2022-08-03T09:36:04.723Z,29.13
2022-08-03T09:38:33.023Z,29.45
2022-08-03T09:41:01.263Z,29.83
2022-08-03T09:43:46.535Z,30.20
2022-08-03T09:46:14.745Z,30.63
2022-08-03T09:48:42.929Z,30.97
2022-08-03T09:52:30.226Z,31.24
2022-08-03T09:54:05.555Z,31.52
2022-08-03T09:56:47.488Z,31.83
2022-08-03T09:59:25.173Z,32.25
2022-08-03T10:01:55.466Z,32.52
2022-08-03T10:04:24.537Z,32.67
2022-08-03T10:07:07.270Z,32.75
2022-08-03T10:09:38.598Z,32.99
2022-08-03T10:12:14.145Z,33.12
2022-08-03T10:14:45.973Z,33.35
2022-08-03T10:17:14.457Z,33.45
2022-08-03T10:19:42.643Z,32.94
2022-08-03T10:22:14.310Z,32.84
2022-08-03T10:24:52.763Z,32.79
2022-08-03T10:27:24.163Z,32.60
2022-08-03T10:29:55.229Z,32.67
2022-08-03T10:32:30.576Z,32.80
2022-08-03T10:35:19.588Z,33.11
2022-08-03T10:38:00.499Z,33.18
2022-08-03T10:40:49.630Z,33.02
2022-08-03T10:43:28.692Z,33.06
2022-08-03T10:45:57.238Z,33.38
2022-08-03T10:48:26.382Z,33.47
2022-08-03T10:50:55.021Z,33.51
2022-08-03T10:53:40.670Z,33.70
2022-08-03T10:56:52.573Z,33.87
2022-08-03T10:59:50.821Z,33.90
2022-08-03T11:02:19.161Z,34.18
2022-08-03T11:04:47.362Z,34.49
2022-08-03T11:07:23.737Z,34.30
2022-08-03T11:09:54.494Z,34.14
2022-08-03T11:12:32.961Z,34.02
2022-08-03T11:15:04.858Z,33.67
2022-08-03T11:17:46.472Z,34.09
2022-08-03T11:20:46.148Z,34.54
2022-08-03T11:23:15.847Z,34.45
2022-08-03T11:26:10.263Z,34.36
2022-08-03T11:28:40.116Z,33.77
2022-08-03T11:31:48.127Z,33.56
2022-08-03T11:34:14.841Z,33.06
2022-08-03T11:37:24.617Z,33.00
2022-08-03T11:39:55.531Z,33.47
2022-08-03T11:42:24.069Z,33.81
2022-08-03T11:44:54.821Z,34.12
2022-08-03T11:47:25.783Z,34.29
2022-08-03T11:49:57.705Z,34.10
2022-08-03T11:52:27.598Z,33.98
2022-08-03T11:54:57.524Z,33.72
2022-08-03T11:59:10.935Z,33.82
2022-08-03T12:00:22.874Z,33.85
2022-08-03T12:03:13.884Z,34.32
2022-08-03T12:05:52.905Z,34.70
2022-08-03T12:08:27.004Z,34.48
2022-08-03T12:10:57.589Z,34.22
2022-08-03T12:14:43.823Z,33.76
2022-08-03T12:16:23.486Z,33.41
2022-08-03T12:19:05.295Z,33.22
2022-08-03T12:21:33.681Z,33.37
2022-08-03T12:24:04.534Z,33.78
2022-08-03T12:26:58.409Z,34.22
2022-08-03T12:29:27.792Z,34.66
2022-08-03T12:31:56.449Z,34.77
2022-08-03T12:34:24.928Z,34.83
2022-08-03T12:36:59.750Z,35.05
2022-08-03T12:39:31.397Z,35.07
2022-08-03T12:41:59.783Z,35.09
2022-08-03T12:44:33.004Z,35.11
2022-08-03T12:47:02.669Z,35.12
2022-08-03T12:49:54.182Z,34.94
2022-08-03T12:52:23.698Z,34.55
2022-08-03T12:54:57.257Z,34.56
2022-08-03T12:57:25.688Z,34.61
2022-08-03T13:00:28.995Z,34.69
2022-08-03T13:05:57.604Z,34.72
2022-08-03T13:09:01.555Z,34.87
2022-08-03T13:11:58.061Z,34.94
2022-08-03T13:14:20.170Z,35.11
2022-08-03T13:16:49.509Z,35.11
2022-08-03T13:19:17.961Z,35.15
2022-08-03T13:22:01.953Z,35.35
2022-08-03T13:24:33.725Z,35.59
2022-08-03T13:28:04.863Z,35.47
2022-08-03T13:29:53.078Z,35.25
2022-08-03T13:32:21.617Z,35.21
2022-08-03T13:34:49.916Z,35.40
2022-08-03T13:37:18.160Z,35.66
2022-08-03T13:39:59.801Z,35.85
2022-08-03T13:42:30.811Z,36.16
2022-08-03T13:44:59.955Z,36.26
2022-08-03T13:47:28.636Z,36.43
2022-08-03T13:50:01.629Z,36.73
2022-08-03T13:52:34.990Z,36.89
2022-08-03T13:55:06.272Z,36.63
2022-08-03T13:58:06.630Z,36.59
2022-08-03T14:00:28.480Z,36.46
2022-08-03T14:03:17.425Z,36.46
2022-08-03T14:05:45.651Z,36.65
2022-08-03T14:08:13.975Z,36.80
2022-08-03T14:10:44.730Z,37.02
2022-08-03T14:13:17.758Z,37.20
2022-08-03T14:15:49.617Z,37.15
2022-08-03T14:18:27.961Z,37.10
2022-08-03T14:21:01.974Z,37.04
2022-08-03T14:23:35.310Z,36.94
2022-08-03T14:26:04.949Z,36.66
2022-08-03T14:28:33.317Z,36.66
2022-08-03T14:31:02.181Z,36.79
2022-08-03T14:33:30.405Z,36.68
2022-08-03T14:35:58.826Z,36.35
2022-08-03T14:38:27.221Z,36.27
2022-08-03T14:40:55.556Z,36.35
2022-08-03T14:43:24.237Z,36.47
2022-08-03T14:45:53.764Z,36.59
2022-08-03T14:50:34.885Z,36.71
2022-08-03T14:51:12.628Z,36.61
2022-08-03T14:53:41.807Z,36.30
2022-08-03T14:56:10.972Z,36.04
2022-08-03T14:58:39.394Z,36.03
2022-08-03T15:02:02.255Z,35.94
2022-08-03T15:03:56.445Z,35.75
2022-08-03T15:06:24.806Z,35.72
2022-08-03T15:09:14.004Z,35.76
2022-08-03T15:11:41.715Z,35.76
2022-08-03T15:14:10.014Z,35.88
2022-08-03T15:16:41.783Z,35.91
2022-08-03T15:20:03.516Z,35.79
2022-08-03T15:21:58.349Z,35.76
2022-08-03T15:24:29.588Z,35.85
2022-08-03T15:26:57.864Z,35.94
2022-08-03T15:30:06.739Z,35.94
2022-08-03T15:32:14.914Z,36.03
2022-08-03T15:34:50.418Z,36.08
2022-08-03T15:37:20.927Z,36.01
2022-08-03T15:39:58.334Z,35.71
2022-08-03T15:42:29.796Z,35.38
2022-08-03T15:44:58.240Z,35.15
2022-08-03T15:47:27.079Z,34.87
2022-08-03T15:49:55.279Z,34.68
2022-08-03T15:52:23.517Z,34.79
2022-08-03T15:54:51.931Z,34.92
2022-08-03T15:57:20.905Z,34.96
2022-08-03T15:59:49.306Z,35.04
2022-08-03T16:02:17.835Z,35.07
2022-08-03T16:04:46.062Z,35.12
2022-08-03T16:07:16.020Z,35.15
2022-08-03T16:09:44.465Z,35.11
2022-08-03T16:12:15.549Z,35.08
2022-08-03T16:14:52.945Z,35.10
2022-08-03T16:17:22.470Z,35.16
2022-08-03T16:19:54.737Z,35.08
2022-08-03T16:22:24.767Z,34.84
2022-08-03T16:24:56.115Z,34.66
2022-08-03T16:27:37.379Z,34.45
2022-08-03T16:30:16.771Z,34.03
2022-08-03T16:32:45.690Z,33.62
2022-08-03T16:35:19.844Z,33.27
2022-08-03T16:37:56.278Z,32.85
2022-08-03T16:40:26.129Z,32.50
2022-08-03T16:42:54.529Z,32.14
2022-08-03T16:45:23.185Z,31.91
2022-08-03T16:48:04.887Z,31.69
2022-08-03T16:50:36.351Z,31.42
2022-08-03T16:53:09.509Z,31.20
2022-08-03T16:55:43.382Z,31.00
2022-08-03T16:58:24.455Z,30.82
2022-08-03T17:01:10.926Z,30.58
2022-08-03T17:04:03.581Z,30.48
2022-08-03T17:06:38.287Z,30.28
2022-08-03T17:09:18.063Z,30.08
2022-08-03T17:11:48.671Z,29.93
2022-08-03T17:14:21.769Z,29.80
2022-08-03T17:16:53.905Z,29.65
2022-08-03T17:19:24.561Z,29.54
2022-08-03T17:21:59.539Z,29.41
2022-08-03T17:24:34.629Z,29.30
2022-08-03T17:27:08.595Z,29.17
2022-08-03T17:29:44.920Z,29.04
2022-08-03T17:32:18.326Z,28.92
2022-08-03T17:34:49.716Z,28.75
2022-08-03T17:37:50.252Z,28.73
2022-08-03T17:40:12.067Z,28.59
2022-08-03T17:43:01.114Z,28.48
2022-08-03T17:45:52.508Z,28.42
2022-08-03T17:48:18.412Z,28.33
2022-08-03T17:50:52.151Z,28.23
2022-08-03T17:53:36.768Z,28.15
2022-08-03T17:56:44.557Z,28.04
2022-08-03T17:59:51.047Z,27.89
2022-08-03T18:02:48.410Z,27.80
2022-08-03T18:05:21.908Z,27.71
2022-08-03T18:07:59.376Z,27.53
2022-08-03T18:10:35.989Z,27.54
2022-08-03T18:13:15.536Z,27.38
2022-08-03T18:15:52.121Z,27.36
2022-08-03T18:18:32.607Z,27.29
2022-08-03T18:21:06.698Z,27.24
2022-08-03T18:23:39.159Z,27.20
2022-08-03T18:26:12.145Z,27.14
2022-08-03T18:28:40.908Z,27.05
2022-08-03T18:34:16.919Z,26.79
2022-08-03T18:36:49.374Z,26.77
2022-08-03T18:39:19.710Z,26.71
2022-08-03T18:41:48.019Z,26.65
2022-08-03T18:44:53.439Z,26.59
2022-08-03T18:47:16.766Z,26.50
2022-08-03T18:50:02.029Z,26.42
2022-08-03T18:52:39.685Z,26.32
2022-08-03T18:55:33.059Z,26.23
2022-08-03T18:58:05.975Z,26.13
2022-08-03T19:00:53.881Z,26.05
2022-08-03T19:03:25.038Z,25.95
2022-08-03T19:06:19.184Z,25.86
2022-08-03T19:09:07.300Z,25.78
2022-08-03T19:12:14.248Z,25.71
2022-08-03T19:14:43.291Z,25.61
2022-08-03T19:17:14.188Z,25.54
2022-08-03T19:19:52.474Z,25.48
2022-08-03T19:22:21.550Z,25.41
2022-08-03T19:24:53.064Z,25.35
2022-08-03T19:27:27.017Z,25.27
2022-08-03T19:30:02.048Z,25.21
2022-08-03T19:32:34.178Z,25.17
2022-08-03T19:35:05.052Z,25.11
2022-08-03T19:37:44.443Z,25.06
2022-08-03T19:40:12.811Z,25.01
2022-08-03T19:42:45.405Z,24.95
2022-08-03T19:45:21.613Z,24.89
2022-08-03T19:47:53.225Z,24.83
2022-08-03T19:50:21.548Z,24.78
2022-08-03T19:52:50.237Z,24.74
2022-08-03T19:55:18.697Z,24.68
2022-08-03T19:57:49.367Z,24.63
2022-08-03T20:00:26.420Z,24.59
2022-08-03T20:02:56.107Z,24.53
2022-08-03T20:05:25.034Z,24.47
2022-08-03T20:07:57.352Z,24.43
2022-08-03T20:10:27.014Z,24.40
2022-08-03T20:12:55.297Z,24.36
2022-08-03T20:15:31.134Z,24.32
2022-08-03T20:18:16.811Z,24.27
2022-08-03T20:20:50.183Z,24.22
2022-08-03T20:23:20.344Z,24.09
2022-08-03T20:25:58.210Z,24.13
2022-08-03T20:28:50.347Z,24.10
2022-08-03T20:31:25.146Z,24.05
2022-08-03T20:34:01.230Z,24.01
2022-08-03T20:36:29.580Z,23.96
2022-08-03T20:38:59.658Z,23.94
2022-08-03T20:41:28.214Z,23.92
2022-08-03T20:44:00.983Z,23.89
2022-08-03T20:46:41.440Z,23.84
2022-08-03T20:49:22.939Z,23.78
2022-08-03T20:54:41.394Z,23.68
2022-08-03T20:57:10.183Z,23.63
2022-08-03T20:59:50.730Z,23.59
2022-08-03T21:02:29.864Z,23.54
2022-08-03T21:05:08.611Z,23.50
2022-08-03T21:08:05.660Z,23.39
2022-08-03T21:10:33.531Z,23.45
2022-08-03T21:12:58.149Z,26.99
2022-08-03T21:13:12.284Z,23.73
2022-08-03T21:13:23.689Z,23.41
2022-08-03T21:16:11.786Z,23.35
2022-08-03T21:18:45.979Z,23.31
2022-08-03T21:21:15.784Z,23.28
2022-08-03T21:23:47.981Z,23.24
2022-08-03T21:26:18.693Z,23.13
2022-08-03T21:28:49.469Z,23.17
2022-08-03T21:31:19.894Z,23.07
2022-08-03T21:33:56.677Z,23.13
2022-08-03T21:36:27.977Z,23.00
2022-08-03T21:38:57.575Z,23.09
2022-08-03T21:41:28.777Z,23.09
2022-08-03T21:43:57.382Z,23.08
2022-08-03T21:46:29.727Z,23.07
2022-08-03T21:50:06.894Z,23.04
2022-08-03T21:51:50.640Z,23.01
2022-08-03T21:54:20.993Z,22.99
2022-08-03T21:56:51.128Z,22.96
2022-08-03T21:59:21.861Z,22.95
2022-08-03T22:01:55.281Z,22.93
2022-08-03T22:04:53.377Z,22.91
2022-08-03T22:07:15.818Z,22.88
2022-08-03T22:09:51.272Z,22.85
2022-08-03T22:12:24.925Z,22.82
2022-08-03T22:15:01.118Z,22.78
2022-08-03T22:17:55.332Z,22.74
2022-08-03T22:20:23.229Z,22.71
2022-08-03T22:22:56.011Z,22.68
2022-08-03T22:25:29.642Z,22.65
2022-08-03T22:28:04.278Z,22.63
2022-08-03T22:30:33.397Z,22.61
2022-08-03T22:33:05.514Z,22.59
2022-08-03T22:35:44.224Z,22.58
2022-08-03T22:38:19.480Z,22.58
2022-08-03T22:40:52.416Z,22.55
2022-08-03T22:43:25.202Z,22.51
2022-08-03T22:46:10.338Z,22.48
2022-08-03T22:48:41.735Z,22.45
2022-08-03T22:51:10.948Z,22.42
2022-08-03T22:53:39.696Z,22.38
2022-08-03T22:56:09.131Z,22.34
2022-08-03T22:58:37.372Z,22.31
2022-08-03T23:01:10.315Z,22.29
2022-08-03T23:04:00.204Z,22.29
2022-08-03T23:06:43.348Z,22.27
2022-08-03T23:09:13.920Z,22.26
2022-08-03T23:11:46.039Z,22.23
2022-08-03T23:14:16.436Z,22.21
2022-08-03T23:16:46.468Z,22.18
2022-08-03T23:19:16.936Z,22.17
2022-08-03T23:22:02.351Z,22.16
2022-08-03T23:24:36.403Z,22.14
2022-08-03T23:27:05.888Z,22.12
2022-08-03T23:29:36.922Z,22.10
2022-08-03T23:32:06.135Z,22.06
2022-08-03T23:34:54.341Z,22.05
2022-08-03T23:37:25.009Z,22.03
2022-08-03T23:39:54.986Z,22.01
2022-08-03T23:42:23.813Z,22.01
2022-08-03T23:44:55.126Z,21.99
2022-08-03T23:47:23.886Z,21.89
2022-08-03T23:49:52.302Z,21.95
2022-08-03T23:52:35.071Z,21.92
2022-08-03T23:55:08.648Z,21.88
2022-08-03T23:57:59.743Z,21.85
